createdAt,value
2019-01-17T00:02:28.186Z,11.13
2019-01-17T00:05:02.373Z,10.77
2019-01-17T00:07:36.297Z,11.07
2019-01-17T00:10:11.056Z,11.22
2019-01-17T00:12:44.920Z,11.47
2019-01-17T00:15:19.978Z,11.73
2019-01-17T00:17:53.798Z,11.83
2019-01-17T00:20:27.769Z,10.65
2019-01-17T00:23:03.159Z,11.00
2019-01-17T00:25:37.027Z,10.23
2019-01-17T00:28:10.517Z,10.33
2019-01-17T00:30:44.112Z,10.47
2019-01-17T00:33:17.653Z,8.10
2019-01-17T00:36:08.926Z,8.77
2019-01-17T00:38:47.888Z,7.80
2019-01-17T00:41:22.019Z,7.53
2019-01-17T00:43:55.763Z,6.53
2019-01-17T00:46:31.290Z,6.87
2019-01-17T00:49:06.239Z,7.47
2019-01-17T00:51:40.056Z,6.62
2019-01-17T00:54:14.089Z,7.67
2019-01-17T00:56:48.356Z,7.73
2019-01-17T00:59:24.591Z,8.50
2019-01-17T01:01:58.519Z,8.83
2019-01-17T01:04:32.132Z,8.10
2019-01-17T01:07:05.897Z,8.03
2019-01-17T01:09:42.674Z,8.77
2019-01-17T01:12:16.362Z,8.83
2019-01-17T01:14:49.947Z,8.60
2019-01-17T01:17:23.658Z,8.93
2019-01-17T01:19:57.312Z,9.00
2019-01-17T01:22:37.661Z,10.17
2019-01-17T01:28:10.072Z,9.40
2019-01-17T01:30:44.191Z,9.10
2019-01-17T01:33:24.930Z,9.93
2019-01-17T01:35:58.828Z,9.70
2019-01-17T01:38:32.258Z,9.77
2019-01-17T01:41:06.338Z,10.03
2019-01-17T01:43:40.624Z,9.90
2019-01-17T01:46:14.742Z,9.63
2019-01-17T01:48:48.942Z,9.80
2019-01-17T01:51:22.917Z,10.13
2019-01-17T01:53:56.865Z,11.03
2019-01-17T01:56:31.741Z,12.13
2019-01-17T01:59:06.489Z,12.82
2019-01-17T02:01:40.558Z,13.13
2019-01-17T02:04:15.899Z,13.85
2019-01-17T02:06:51.075Z,14.03
2019-01-17T02:09:25.039Z,13.03
2019-01-17T02:11:58.813Z,13.37
2019-01-17T02:17:50.565Z,12.27
2019-01-17T02:20:25.727Z,9.93
2019-01-17T02:22:59.986Z,12.10
2019-01-17T02:25:34.328Z,13.37
2019-01-17T02:28:08.184Z,13.87
2019-01-17T02:30:41.993Z,12.83
2019-01-17T02:33:15.779Z,13.57
2019-01-17T02:35:50.724Z,12.53
2019-01-17T02:38:28.332Z,14.38
2019-01-17T02:41:02.147Z,8.90
2019-01-17T02:43:37.545Z,9.05
2019-01-17T02:46:11.187Z,7.63
2019-01-17T02:48:45.025Z,4.97
2019-01-17T02:51:22.742Z,7.95
2019-01-17T02:54:01.803Z,10.77
2019-01-17T02:56:35.839Z,9.80
2019-01-17T02:59:09.866Z,10.37
2019-01-17T03:01:43.845Z,11.30
2019-01-17T03:07:13.049Z,10.37
2019-01-17T03:09:50.093Z,11.00
2019-01-17T03:12:24.469Z,10.50
2019-01-17T03:14:58.261Z,10.28
2019-01-17T03:17:32.609Z,11.27
2019-01-17T03:20:09.115Z,9.83
2019-01-17T03:22:43.993Z,9.70
2019-01-17T03:25:18.089Z,10.47
2019-01-17T03:27:52.776Z,10.43
2019-01-17T03:30:28.147Z,9.90
2019-01-17T03:33:01.969Z,10.23
2019-01-17T03:35:40.611Z,10.27
2019-01-17T03:38:15.499Z,9.83
2019-01-17T03:40:49.284Z,9.10
2019-01-17T03:43:23.135Z,8.63
2019-01-17T03:45:57.256Z,7.87
2019-01-17T03:48:32.454Z,9.87
2019-01-17T03:51:06.871Z,9.37
2019-01-17T03:53:41.316Z,10.03
2019-01-17T03:56:21.462Z,10.15
2019-01-17T03:58:50.707Z,9.50
2019-01-17T04:01:24.579Z,10.73
2019-01-17T04:03:59.143Z,10.43
2019-01-17T04:06:33.137Z,10.40
2019-01-17T04:09:08.600Z,11.78
2019-01-17T04:11:42.628Z,17.65
2019-01-17T04:14:16.468Z,11.43
2019-01-17T04:16:50.000Z,9.73
2019-01-17T04:19:24.619Z,8.83
2019-01-17T04:21:59.408Z,14.70
2019-01-17T04:24:33.823Z,10.03
2019-01-17T04:27:09.613Z,10.63
2019-01-17T04:29:43.339Z,11.83
2019-01-17T04:32:18.557Z,12.47
2019-01-17T04:34:52.378Z,14.17
2019-01-17T04:37:26.635Z,13.30
2019-01-17T04:40:00.678Z,12.10
2019-01-17T04:42:34.438Z,13.50
2019-01-17T04:45:09.478Z,13.03
2019-01-17T04:47:44.338Z,13.10
2019-01-17T04:50:18.395Z,11.90
2019-01-17T04:52:52.271Z,11.20
2019-01-17T04:55:26.324Z,9.43
2019-01-17T04:58:00.288Z,9.68
2019-01-17T05:00:33.983Z,10.17
2019-01-17T05:03:09.443Z,10.30
2019-01-17T05:05:43.018Z,9.13
2019-01-17T05:08:17.917Z,9.77
2019-01-17T05:10:51.893Z,9.20
2019-01-17T05:13:25.553Z,8.93
2019-01-17T05:15:59.153Z,8.70
2019-01-17T05:18:33.195Z,9.23
2019-01-17T05:21:06.760Z,8.57
2019-01-17T05:23:41.552Z,8.40
2019-01-17T05:26:15.869Z,8.13
2019-01-17T05:28:50.157Z,7.97
2019-01-17T05:31:27.167Z,7.80
2019-01-17T05:34:03.837Z,8.80
2019-01-17T05:36:38.671Z,8.65
2019-01-17T05:39:12.498Z,8.28
2019-01-17T05:41:47.560Z,7.97
2019-01-17T05:44:22.832Z,7.97
2019-01-17T05:46:56.917Z,8.73
2019-01-17T05:49:30.825Z,8.37
2019-01-17T05:52:05.022Z,8.97
2019-01-17T05:54:41.645Z,9.10
2019-01-17T05:57:15.872Z,8.83
2019-01-17T05:59:49.962Z,8.63
2019-01-17T06:02:23.694Z,9.13
2019-01-17T06:04:57.901Z,9.37
2019-01-17T06:07:32.739Z,8.77
2019-01-17T06:10:07.592Z,9.25
2019-01-17T06:12:41.713Z,8.77
2019-01-17T06:15:16.427Z,9.67
2019-01-17T06:17:51.719Z,9.57
2019-01-17T06:20:26.090Z,9.00
2019-01-17T06:23:00.244Z,8.67
2019-01-17T06:25:35.075Z,8.23
2019-01-17T06:28:08.684Z,7.60
2019-01-17T06:30:43.075Z,8.43
2019-01-17T06:33:16.854Z,8.77
2019-01-17T06:35:51.563Z,8.55
2019-01-17T06:38:25.494Z,8.60
2019-01-17T06:40:59.232Z,8.80
2019-01-17T06:43:33.388Z,7.83
2019-01-17T06:46:07.435Z,9.27
2019-01-17T06:48:47.896Z,8.20
2019-01-17T06:51:24.510Z,7.85
2019-01-17T06:53:58.634Z,8.20
2019-01-17T06:56:32.134Z,7.77
2019-01-17T06:59:08.871Z,7.37
2019-01-17T07:01:42.795Z,7.27
2019-01-17T07:04:16.894Z,7.70
2019-01-17T07:06:51.046Z,7.07
2019-01-17T07:09:24.526Z,7.40
2019-01-17T07:11:58.849Z,7.10
2019-01-17T07:14:33.634Z,7.53
2019-01-17T07:17:08.147Z,6.23
2019-01-17T07:19:42.655Z,7.10
2019-01-17T07:22:16.607Z,7.13
2019-01-17T07:24:50.604Z,7.37
2019-01-17T07:27:25.625Z,6.70
2019-01-17T07:30:02.606Z,6.90
2019-01-17T07:32:36.560Z,6.30
2019-01-17T07:35:10.920Z,7.23
2019-01-17T07:37:45.443Z,7.13
2019-01-17T07:40:24.311Z,7.50
2019-01-17T07:42:59.479Z,7.45
2019-01-17T07:45:34.841Z,6.87
2019-01-17T07:48:09.387Z,6.73
2019-01-17T07:50:45.164Z,6.63
2019-01-17T07:53:19.095Z,6.93
2019-01-17T07:55:53.265Z,6.50
2019-01-17T07:58:27.239Z,7.37
2019-01-17T08:01:01.310Z,6.87
2019-01-17T08:03:35.204Z,6.40
2019-01-17T08:06:09.764Z,6.97
2019-01-17T08:08:43.470Z,6.90
2019-01-17T08:11:18.632Z,6.93
2019-01-17T08:13:53.987Z,7.30
2019-01-17T08:16:32.660Z,7.43
2019-01-17T08:19:08.406Z,6.60
2019-01-17T08:21:43.144Z,6.30
2019-01-17T08:24:17.533Z,6.72
2019-01-17T08:26:55.314Z,5.92
2019-01-17T08:29:30.888Z,6.97
2019-01-17T08:32:05.049Z,6.53
2019-01-17T08:34:41.821Z,7.30
2019-01-17T08:37:16.890Z,6.33
2019-01-17T08:39:51.097Z,6.93
2019-01-17T08:42:25.213Z,6.80
2019-01-17T08:45:00.847Z,7.28
2019-01-17T08:47:36.471Z,6.77
2019-01-17T08:50:15.795Z,6.73
2019-01-17T08:52:50.323Z,7.40
2019-01-17T08:55:24.828Z,7.23
2019-01-17T08:58:01.949Z,6.40
2019-01-17T09:00:36.369Z,7.37
2019-01-17T09:03:10.335Z,7.30
2019-01-17T09:05:44.201Z,6.55
2019-01-17T09:08:19.141Z,7.62
2019-01-17T09:10:56.452Z,7.03
2019-01-17T09:13:32.336Z,6.97
2019-01-17T09:16:12.992Z,7.77
2019-01-17T09:18:47.942Z,8.07
2019-01-17T09:21:25.860Z,8.30
2019-01-17T09:24:00.418Z,7.73
2019-01-17T09:26:35.644Z,8.40
2019-01-17T09:29:11.520Z,7.83
2019-01-17T09:31:46.757Z,7.65
2019-01-17T09:34:21.601Z,7.97
2019-01-17T09:36:56.190Z,9.00
2019-01-17T09:39:31.451Z,8.73
2019-01-17T09:42:06.294Z,9.93
2019-01-17T09:44:41.298Z,9.35
2019-01-17T09:47:17.584Z,9.93
2019-01-17T09:49:53.326Z,10.13
2019-01-17T09:52:27.548Z,10.03
2019-01-17T09:55:02.238Z,9.68
2019-01-17T09:57:36.619Z,11.47
2019-01-17T10:00:18.596Z,10.60
2019-01-17T10:02:52.830Z,10.03
2019-01-17T10:05:28.285Z,10.60
2019-01-17T10:08:02.676Z,10.93
2019-01-17T10:10:38.829Z,11.50
2019-01-17T10:13:15.428Z,13.43
2019-01-17T10:15:55.322Z,12.43
2019-01-17T10:19:01.134Z,12.37
2019-01-17T10:21:52.256Z,13.00
2019-01-17T10:24:47.588Z,13.30
2019-01-17T10:27:55.155Z,14.73
2019-01-17T10:31:01.304Z,15.43
2019-01-17T10:33:44.342Z,16.20
2019-01-17T10:36:38.723Z,15.70
2019-01-17T10:39:39.196Z,15.60
2019-01-17T10:42:37.446Z,15.17
2019-01-17T10:45:32.189Z,15.97
2019-01-17T10:48:15.057Z,15.23
2019-01-17T10:51:26.235Z,14.97
2019-01-17T10:54:37.036Z,15.43
2019-01-17T10:57:35.843Z,14.77
2019-01-17T11:00:34.296Z,14.90
2019-01-17T11:03:27.350Z,14.73
2019-01-17T11:06:04.383Z,15.27
2019-01-17T11:08:43.840Z,14.47
2019-01-17T11:11:24.958Z,15.63
2019-01-17T11:14:35.093Z,14.97
2019-01-17T11:17:34.926Z,13.47
2019-01-17T11:20:29.353Z,14.00
2019-01-17T11:23:15.455Z,14.80
2019-01-17T11:26:13.210Z,14.83
2019-01-17T11:29:05.570Z,14.30
2019-01-17T11:31:54.833Z,14.23
2019-01-17T11:35:07.964Z,14.38
2019-01-17T11:37:51.473Z,13.40
2019-01-17T11:40:45.012Z,13.87
2019-01-17T11:43:35.446Z,14.05
2019-01-17T11:46:39.010Z,12.97
2019-01-17T11:49:51.918Z,14.05
2019-01-17T11:52:56.853Z,13.30
2019-01-17T11:56:05.886Z,12.13
2019-01-17T11:59:28.756Z,13.33
2019-01-17T12:02:42.310Z,13.50
2019-01-17T12:05:17.116Z,12.93
2019-01-17T12:07:56.499Z,12.60
2019-01-17T12:10:38.065Z,13.03
2019-01-17T12:13:17.350Z,12.67
2019-01-17T12:15:54.499Z,11.97
2019-01-17T12:18:31.190Z,13.00
2019-01-17T12:21:21.679Z,11.65
2019-01-17T12:23:58.641Z,12.28
2019-01-17T12:26:34.956Z,11.33
2019-01-17T12:29:12.599Z,11.05
2019-01-17T12:31:47.615Z,11.60
2019-01-17T12:34:22.500Z,10.93
2019-01-17T12:36:57.407Z,11.73
2019-01-17T12:39:34.655Z,11.63
2019-01-17T12:42:16.606Z,11.30
2019-01-17T12:44:54.319Z,11.28
2019-01-17T12:50:35.572Z,10.63
2019-01-17T12:53:11.693Z,11.12
2019-01-17T12:55:50.035Z,11.15
2019-01-17T12:58:25.629Z,10.83
2019-01-17T13:01:02.880Z,10.82
2019-01-17T13:03:38.824Z,11.25
2019-01-17T13:06:18.824Z,11.12
2019-01-17T13:08:56.719Z,11.94
2019-01-17T13:11:32.380Z,11.17
2019-01-17T13:14:09.181Z,11.63
2019-01-17T13:16:46.771Z,10.75
2019-01-17T13:19:22.638Z,11.20
2019-01-17T13:22:14.974Z,9.60
2019-01-17T13:24:52.877Z,10.73
2019-01-17T13:27:38.324Z,11.13
2019-01-17T13:30:20.991Z,10.98
2019-01-17T13:33:10.108Z,10.60
2019-01-17T13:35:52.184Z,10.67
2019-01-17T13:38:26.879Z,10.87
2019-01-17T13:41:01.926Z,10.97
2019-01-17T13:43:36.732Z,11.55
2019-01-17T13:46:12.588Z,10.93
2019-01-17T13:48:51.538Z,11.63
2019-01-17T13:51:42.598Z,11.73
2019-01-17T13:54:35.936Z,11.63
2019-01-17T13:57:20.237Z,11.30
2019-01-17T14:00:00.362Z,12.05
2019-01-17T14:02:35.977Z,12.50
2019-01-17T14:05:16.921Z,11.37
2019-01-17T14:07:52.274Z,12.20
2019-01-17T14:10:26.973Z,11.97
2019-01-17T14:13:14.347Z,11.00
2019-01-17T14:15:52.254Z,12.30
2019-01-17T14:18:27.987Z,12.60
2019-01-17T14:21:02.937Z,12.37
2019-01-17T14:23:46.467Z,12.47
2019-01-17T14:26:26.350Z,12.57
2019-01-17T14:29:06.583Z,12.17
2019-01-17T14:31:40.467Z,12.50
2019-01-17T14:34:21.026Z,12.33
2019-01-17T14:36:55.067Z,12.37
2019-01-17T14:39:28.749Z,12.37
2019-01-17T14:42:03.239Z,12.47
2019-01-17T14:44:44.026Z,12.47
2019-01-17T14:47:21.539Z,11.40
2019-01-17T14:49:56.967Z,12.63
2019-01-17T14:52:30.904Z,13.38
2019-01-17T14:55:05.599Z,12.37
2019-01-17T14:57:43.542Z,12.87
2019-01-17T15:00:34.242Z,12.97
2019-01-17T15:03:09.316Z,12.05
2019-01-17T15:05:53.708Z,12.05
2019-01-17T15:08:31.651Z,11.73
2019-01-17T15:11:10.536Z,12.77
2019-01-17T15:13:44.689Z,13.10
2019-01-17T15:16:19.546Z,12.33
2019-01-17T15:18:54.481Z,11.08
2019-01-17T15:21:41.653Z,11.77
2019-01-17T15:24:37.212Z,11.95
2019-01-17T15:27:15.332Z,11.93
2019-01-17T15:29:50.838Z,10.93
2019-01-17T15:32:26.693Z,11.28
2019-01-17T15:35:00.744Z,11.65
2019-01-17T15:37:35.313Z,10.45
2019-01-17T15:40:14.230Z,11.40
2019-01-17T15:42:52.349Z,11.37
2019-01-17T15:45:26.756Z,11.50
2019-01-17T15:48:00.491Z,11.57
2019-01-17T15:50:34.164Z,11.17
2019-01-17T15:53:08.627Z,11.38
2019-01-17T15:55:44.335Z,12.00
2019-01-17T15:58:22.006Z,10.23
2019-01-17T16:00:59.170Z,12.73
2019-01-17T16:03:55.920Z,10.90
2019-01-17T16:06:30.548Z,9.93
2019-01-17T16:09:12.923Z,11.17
2019-01-17T16:11:50.528Z,10.87
2019-01-17T16:14:25.262Z,11.37
2019-01-17T16:17:00.514Z,10.28
2019-01-17T16:19:38.469Z,10.00
2019-01-17T16:22:12.135Z,9.85
2019-01-17T16:24:49.313Z,10.60
2019-01-17T16:27:23.081Z,11.67
2019-01-17T16:30:00.226Z,11.10
2019-01-17T16:32:39.853Z,9.67
2019-01-17T16:35:13.716Z,10.23
2019-01-17T16:37:48.202Z,10.30
2019-01-17T16:40:23.472Z,9.17
2019-01-17T16:42:57.081Z,10.80
2019-01-17T16:45:35.420Z,10.57
2019-01-17T16:48:08.623Z,10.90
2019-01-17T16:50:45.142Z,10.23
2019-01-17T16:53:22.230Z,9.93
2019-01-17T16:55:55.918Z,11.60
2019-01-17T16:58:30.995Z,10.77
2019-01-17T17:01:08.516Z,12.07
2019-01-17T17:03:47.389Z,10.78
2019-01-17T17:06:30.079Z,11.87
2019-01-17T17:09:08.243Z,11.60
2019-01-17T17:11:43.577Z,10.13
2019-01-17T17:14:18.301Z,11.00
2019-01-17T17:16:53.731Z,10.20
2019-01-17T17:19:28.067Z,10.87
2019-01-17T17:22:03.311Z,10.37
2019-01-17T17:24:38.067Z,12.30
2019-01-17T17:27:12.690Z,11.23
2019-01-17T17:29:46.690Z,10.50
2019-01-17T17:32:20.563Z,11.50
2019-01-17T17:34:54.222Z,10.57
2019-01-17T17:37:28.467Z,12.20
2019-01-17T17:40:02.133Z,11.13
2019-01-17T17:42:36.141Z,11.70
2019-01-17T17:45:17.136Z,11.97
2019-01-17T17:47:52.309Z,10.87
2019-01-17T17:50:30.170Z,10.98
2019-01-17T17:53:04.168Z,11.47
2019-01-17T17:55:40.295Z,11.63
2019-01-17T17:58:25.246Z,11.93
2019-01-17T18:01:08.675Z,12.97
2019-01-17T18:03:43.395Z,12.00
2019-01-17T18:06:20.606Z,12.77
2019-01-17T18:08:54.467Z,12.23
2019-01-17T18:11:30.666Z,14.37
2019-01-17T18:14:04.402Z,12.87
2019-01-17T18:16:41.987Z,13.10
2019-01-17T18:19:16.190Z,13.83
2019-01-17T18:21:50.223Z,13.38
2019-01-17T18:24:24.063Z,14.23
2019-01-17T18:27:00.802Z,13.65
2019-01-17T18:29:34.862Z,14.60
2019-01-17T18:32:08.520Z,12.93
2019-01-17T18:34:42.326Z,13.05
2019-01-17T18:37:16.322Z,13.77
2019-01-17T18:39:51.506Z,15.13
2019-01-17T18:42:28.473Z,12.93
2019-01-17T18:45:04.531Z,13.88
2019-01-17T18:47:38.221Z,14.60
2019-01-17T18:50:17.941Z,15.87
2019-01-17T18:52:54.281Z,15.40
2019-01-17T18:55:30.013Z,15.45
2019-01-17T18:58:04.019Z,17.00
2019-01-17T19:00:37.685Z,15.83
2019-01-17T19:03:11.355Z,16.60
2019-01-17T19:05:45.124Z,16.75
2019-01-17T19:08:20.045Z,17.30
2019-01-17T19:10:55.441Z,16.07
2019-01-17T19:13:28.406Z,17.37
2019-01-17T19:16:01.963Z,16.60
2019-01-17T19:18:35.658Z,18.77
2019-01-17T19:21:09.474Z,17.07
2019-01-17T19:23:44.168Z,18.37
2019-01-17T19:26:17.667Z,18.30
2019-01-17T19:28:51.198Z,18.70
2019-01-17T19:31:25.681Z,19.20
2019-01-17T19:34:01.127Z,17.90
2019-01-17T19:36:34.830Z,16.60
2019-01-17T19:39:28.296Z,16.47
2019-01-17T19:42:01.806Z,17.57
2019-01-17T19:44:35.013Z,17.70
2019-01-17T19:47:08.939Z,16.95
2019-01-17T19:49:42.937Z,17.07
2019-01-17T19:52:19.947Z,16.67
2019-01-17T19:54:54.537Z,18.50
2019-01-17T19:57:29.557Z,17.30
2019-01-17T20:00:03.258Z,18.43
2019-01-17T20:02:36.903Z,18.37
2019-01-17T20:05:12.603Z,18.53
2019-01-17T20:07:46.290Z,18.73
2019-01-17T20:10:25.694Z,18.23
2019-01-17T20:12:59.375Z,17.23
2019-01-17T20:15:34.305Z,18.05
2019-01-17T20:18:08.316Z,17.23
2019-01-17T20:20:41.901Z,17.93
2019-01-17T20:23:15.343Z,17.53
2019-01-17T20:25:49.150Z,18.37
2019-01-17T20:28:22.775Z,16.93
2019-01-17T20:30:56.616Z,18.60
2019-01-17T20:33:29.999Z,17.13
2019-01-17T20:36:03.479Z,17.07
2019-01-17T20:38:37.837Z,17.37
2019-01-17T20:41:11.762Z,17.83
2019-01-17T20:43:45.661Z,17.90
2019-01-17T20:46:20.572Z,16.73
2019-01-17T20:48:54.091Z,17.93
2019-01-17T20:51:27.873Z,18.10
2019-01-17T20:54:01.687Z,18.05
2019-01-17T20:56:35.541Z,17.23
2019-01-17T20:59:09.778Z,17.33
2019-01-17T21:01:51.199Z,17.85
2019-01-17T21:04:25.131Z,18.43
2019-01-17T21:07:17.139Z,17.83
2019-01-17T21:09:51.242Z,18.00
2019-01-17T21:12:43.621Z,18.30
2019-01-17T21:15:18.171Z,16.03
2019-01-17T21:17:51.706Z,17.40
2019-01-17T21:20:26.151Z,17.37
2019-01-17T21:22:59.444Z,17.00
2019-01-17T21:25:37.209Z,17.43
2019-01-17T21:28:11.182Z,18.53
2019-01-17T21:30:45.729Z,15.20
2019-01-17T21:33:20.031Z,17.73
2019-01-17T21:35:53.653Z,16.40
2019-01-17T21:38:27.454Z,17.00
2019-01-17T21:41:00.998Z,18.23
2019-01-17T21:43:34.792Z,17.15
2019-01-17T21:46:08.463Z,16.25
2019-01-17T21:48:41.868Z,15.27
2019-01-17T21:51:15.020Z,17.37
2019-01-17T21:53:48.211Z,15.43
2019-01-17T21:56:21.619Z,17.57
2019-01-17T21:58:56.016Z,16.43
2019-01-17T22:01:29.945Z,15.63
2019-01-17T22:04:03.520Z,16.53
2019-01-17T22:06:37.035Z,16.10
2019-01-17T22:09:11.027Z,17.00
2019-01-17T22:11:44.293Z,16.20
2019-01-17T22:14:17.797Z,17.27
2019-01-17T22:16:51.323Z,16.05
2019-01-17T22:19:25.264Z,17.60
2019-01-17T22:21:58.644Z,16.47
2019-01-17T22:24:32.180Z,18.03
2019-01-17T22:27:05.561Z,16.45
2019-01-17T22:29:39.336Z,16.30
2019-01-17T22:32:13.195Z,17.37
2019-01-17T22:34:46.780Z,17.07
2019-01-17T22:37:20.284Z,17.47
2019-01-17T22:39:53.906Z,16.02
2019-01-17T22:42:28.382Z,15.17
2019-01-17T22:45:02.089Z,17.50
2019-01-17T22:47:36.116Z,17.17
2019-01-17T22:50:12.393Z,17.67
2019-01-17T22:52:46.313Z,17.73
2019-01-17T22:55:20.643Z,16.87
2019-01-17T22:57:54.231Z,16.53
2019-01-17T23:00:38.373Z,16.40
2019-01-17T23:03:11.727Z,16.50
2019-01-17T23:05:47.683Z,15.70
2019-01-17T23:08:21.001Z,17.70
2019-01-17T23:10:54.292Z,17.63
2019-01-17T23:13:29.097Z,17.07
2019-01-17T23:16:03.190Z,15.83
2019-01-17T23:18:36.793Z,16.60
2019-01-17T23:21:10.352Z,16.67
2019-01-17T23:23:44.388Z,16.73
2019-01-17T23:26:17.670Z,17.27
2019-01-17T23:28:51.344Z,16.23
2019-01-17T23:31:24.687Z,16.53
2019-01-17T23:33:58.749Z,15.80
2019-01-17T23:36:33.704Z,15.20
2019-01-17T23:39:08.636Z,16.15
2019-01-17T23:41:42.531Z,16.00
2019-01-17T23:44:16.094Z,16.03
2019-01-17T23:46:49.775Z,15.03
2019-01-17T23:49:23.429Z,15.67
2019-01-17T23:51:57.778Z,16.73
2019-01-17T23:54:31.421Z,15.32
2019-01-17T23:57:05.259Z,15.90
2019-01-17T23:59:38.987Z,15.72
